sensor_id;sensor_type;location;lat;lon;timestamp;pressure;altitude;pressure_sealevel;temperature;humidity
76205;BME280;64986;55.672;37.628;2023-04-02T00:05:36;98868.78;;;6.72;78.37
76205;BME280;64986;55.672;37.628;2023-04-02T00:08:38;98871.63;;;6.77;78.50
76205;BME280;64986;55.672;37.628;2023-04-02T00:11:06;98872.03;;;6.74;78.69
76205;BME280;64986;55.672;37.628;2023-04-02T00:13:35;98876.63;;;6.72;78.54
76205;BME280;64986;55.672;37.628;2023-04-02T00:16:05;98881.72;;;6.80;77.78
76205;BME280;64986;55.672;37.628;2023-04-02T00:18:32;98880.09;;;6.73;78.38
76205;BME280;64986;55.672;37.628;2023-04-02T00:21:21;98885.69;;;6.70;79.11
76205;BME280;64986;55.672;37.628;2023-04-02T00:23:48;98889.31;;;6.68;78.74
76205;BME280;64986;55.672;37.628;2023-04-02T00:26:34;98886.88;;;6.67;80.18
76205;BME280;64986;55.672;37.628;2023-04-02T00:29:03;98895.31;;;6.62;79.39
76205;BME280;64986;55.672;37.628;2023-04-02T00:31:30;98883.22;;;6.61;79.50
76205;BME280;64986;55.672;37.628;2023-04-02T00:33:58;98891.88;;;6.62;79.76
76205;BME280;64986;55.672;37.628;2023-04-02T00:36:28;98885.66;;;6.63;79.66
76205;BME280;64986;55.672;37.628;2023-04-02T00:38:57;98888.03;;;6.51;80.60
76205;BME280;64986;55.672;37.628;2023-04-02T00:41:25;98893.84;;;6.53;80.10
76205;BME280;64986;55.672;37.628;2023-04-02T00:43:54;98901.31;;;6.56;80.09
76205;BME280;64986;55.672;37.628;2023-04-02T00:46:26;98890.25;;;6.54;80.53
76205;BME280;64986;55.672;37.628;2023-04-02T00:51:47;98898.13;;;6.61;80.29
76205;BME280;64986;55.672;37.628;2023-04-02T00:54:17;98902.53;;;6.60;80.60
76205;BME280;64986;55.672;37.628;2023-04-02T00:56:47;98900.34;;;6.64;80.19
76205;BME280;64986;55.672;37.628;2023-04-02T00:59:32;98892.50;;;6.64;80.00
76205;BME280;64986;55.672;37.628;2023-04-02T01:02:28;98897.56;;;6.65;80.51
76205;BME280;64986;55.672;37.628;2023-04-02T01:05:21;98892.50;;;6.64;80.97
76205;BME280;64986;55.672;37.628;2023-04-02T01:13:35;98894.94;;;6.72;80.29
76205;BME280;64986;55.672;37.628;2023-04-02T01:19:01;98904.03;;;6.76;80.59
76205;BME280;64986;55.672;37.628;2023-04-02T01:21:40;98899.81;;;6.75;80.33
76205;BME280;64986;55.672;37.628;2023-04-02T01:24:12;98901.00;;;6.73;80.03
76205;BME280;64986;55.672;37.628;2023-04-02T01:26:49;98903.44;;;6.74;80.20
76205;BME280;64986;55.672;37.628;2023-04-02T01:29:56;98903.81;;;6.78;80.08
76205;BME280;64986;55.672;37.628;2023-04-02T01:32:17;98896.59;;;6.73;80.00
76205;BME280;64986;55.672;37.628;2023-04-02T01:34:48;98902.66;;;6.80;79.92
76205;BME280;64986;55.672;37.628;2023-04-02T01:37:49;98900.03;;;6.80;80.37
76205;BME280;64986;55.672;37.628;2023-04-02T01:40:44;98892.38;;;6.85;80.38
76205;BME280;64986;55.672;37.628;2023-04-02T01:43:26;98891.78;;;6.83;80.02
76205;BME280;64986;55.672;37.628;2023-04-02T01:45:58;98895.59;;;6.81;80.29
76205;BME280;64986;55.672;37.628;2023-04-02T01:48:29;98890.19;;;6.82;80.03
76205;BME280;64986;55.672;37.628;2023-04-02T01:50:56;98894.81;;;6.80;80.04
76205;BME280;64986;55.672;37.628;2023-04-02T01:53:24;98894.19;;;6.85;79.91
76205;BME280;64986;55.672;37.628;2023-04-02T01:55:57;98896.25;;;6.89;79.67
76205;BME280;64986;55.672;37.628;2023-04-02T01:58:26;98900.47;;;6.90;79.20
76205;BME280;64986;55.672;37.628;2023-04-02T02:01:20;98897.06;;;6.97;79.84
76205;BME280;64986;55.672;37.628;2023-04-02T02:03:48;98902.88;;;6.92;79.61
76205;BME280;64986;55.672;37.628;2023-04-02T02:06:16;98901.03;;;6.86;79.96
76205;BME280;64986;55.672;37.628;2023-04-02T02:08:52;98893.63;;;6.89;80.04
76205;BME280;64986;55.672;37.628;2023-04-02T02:11:20;98897.41;;;6.87;79.26
76205;BME280;64986;55.672;37.628;2023-04-02T02:16:22;98878.72;;;6.83;79.12
76205;BME280;64986;55.672;37.628;2023-04-02T02:18:51;98892.63;;;6.90;79.47
76205;BME280;64986;55.672;37.628;2023-04-02T02:23:56;98906.72;;;6.89;79.78
76205;BME280;64986;55.672;37.628;2023-04-02T02:26:22;98906.31;;;6.92;79.41
76205;BME280;64986;55.672;37.628;2023-04-02T02:28:51;98903.84;;;6.84;79.17
76205;BME280;64986;55.672;37.628;2023-04-02T02:31:26;98907.03;;;6.80;79.69
76205;BME280;64986;55.672;37.628;2023-04-02T02:34:08;98913.13;;;6.87;79.74
76205;BME280;64986;55.672;37.628;2023-04-02T02:36:50;98902.84;;;6.85;79.23
76205;BME280;64986;55.672;37.628;2023-04-02T02:39:24;98912.91;;;6.82;79.83
76205;BME280;64986;55.672;37.628;2023-04-02T02:41:58;98917.53;;;6.86;79.10
76205;BME280;64986;55.672;37.628;2023-04-02T02:44:36;98910.13;;;6.90;79.43
76205;BME280;64986;55.672;37.628;2023-04-02T02:47:23;98912.50;;;6.85;79.00
76205;BME280;64986;55.672;37.628;2023-04-02T02:49:56;98918.34;;;6.87;79.60
76205;BME280;64986;55.672;37.628;2023-04-02T02:52:31;98918.19;;;6.88;79.51
76205;BME280;64986;55.672;37.628;2023-04-02T02:55:00;98907.72;;;6.88;79.06
76205;BME280;64986;55.672;37.628;2023-04-02T02:57:32;98907.88;;;6.87;78.91
76205;BME280;64986;55.672;37.628;2023-04-02T03:00:01;98911.72;;;6.84;78.75
76205;BME280;64986;55.672;37.628;2023-04-02T03:02:29;98914.75;;;6.88;78.71
76205;BME280;64986;55.672;37.628;2023-04-02T03:04:56;98911.53;;;6.92;78.46
76205;BME280;64986;55.672;37.628;2023-04-02T03:07:24;98924.06;;;6.97;78.19
76205;BME280;64986;55.672;37.628;2023-04-02T03:09:58;98928.25;;;6.91;78.82
76205;BME280;64986;55.672;37.628;2023-04-02T03:17:52;98933.28;;;6.93;78.72
76205;BME280;64986;55.672;37.628;2023-04-02T03:21:16;98932.31;;;7.01;78.43
76205;BME280;64986;55.672;37.628;2023-04-02T03:23:35;98934.31;;;6.99;77.85
76205;BME280;64986;55.672;37.628;2023-04-02T03:28:37;98932.47;;;6.92;77.48
76205;BME280;64986;55.672;37.628;2023-04-02T03:31:18;98935.53;;;7.03;77.31
76205;BME280;64986;55.672;37.628;2023-04-02T03:33:54;98936.94;;;6.99;77.08
76205;BME280;64986;55.672;37.628;2023-04-02T03:36:31;98936.34;;;7.03;77.17
76205;BME280;64986;55.672;37.628;2023-04-02T03:39:09;98928.09;;;7.06;77.50
76205;BME280;64986;55.672;37.628;2023-04-02T03:41:43;98929.31;;;7.04;77.49
76205;BME280;64986;55.672;37.628;2023-04-02T03:47:24;98933.59;;;7.18;76.41
76205;BME280;64986;55.672;37.628;2023-04-02T03:49:55;98939.84;;;7.23;76.00
76205;BME280;64986;55.672;37.628;2023-04-02T03:52:26;98941.09;;;7.34;76.21
76205;BME280;64986;55.672;37.628;2023-04-02T03:54:56;98929.00;;;7.40;75.97
76205;BME280;64986;55.672;37.628;2023-04-02T03:57:33;98933.47;;;7.53;75.18
76205;BME280;64986;55.672;37.628;2023-04-02T04:00:09;98928.47;;;7.58;74.86
76205;BME280;64986;55.672;37.628;2023-04-02T04:02:46;98935.31;;;7.59;74.47
76205;BME280;64986;55.672;37.628;2023-04-02T04:07:47;98936.13;;;7.72;74.01
76205;BME280;64986;55.672;37.628;2023-04-02T04:10:24;98934.50;;;7.78;73.87
76205;BME280;64986;55.672;37.628;2023-04-02T04:12:52;98937.34;;;7.76;73.70
76205;BME280;64986;55.672;37.628;2023-04-02T04:15:23;98933.13;;;7.82;73.55
76205;BME280;64986;55.672;37.628;2023-04-02T04:18:07;98940.97;;;7.82;72.86
76205;BME280;64986;55.672;37.628;2023-04-02T04:21:09;98949.44;;;7.71;72.97
76205;BME280;64986;55.672;37.628;2023-04-02T04:23:38;98945.78;;;7.59;73.40
76205;BME280;64986;55.672;37.628;2023-04-02T04:26:28;98956.22;;;7.45;73.23
76205;BME280;64986;55.672;37.628;2023-04-02T04:31:51;98953.13;;;7.22;74.13
76205;BME280;64986;55.672;37.628;2023-04-02T04:34:28;98957.16;;;7.24;74.50
76205;BME280;64986;55.672;37.628;2023-04-02T04:36:59;98968.66;;;7.30;73.58
76205;BME280;64986;55.672;37.628;2023-04-02T04:39:52;98971.47;;;7.29;74.00
76205;BME280;64986;55.672;37.628;2023-04-02T04:42:39;98966.25;;;7.29;73.43
76205;BME280;64986;55.672;37.628;2023-04-02T04:45:33;98977.13;;;7.32;73.60
76205;BME280;64986;55.672;37.628;2023-04-02T04:48:19;98968.94;;;7.48;73.34
76205;BME280;64986;55.672;37.628;2023-04-02T04:53:52;98962.03;;;7.34;73.36
76205;BME280;64986;55.672;37.628;2023-04-02T04:56:26;98967.47;;;7.39;73.08
76205;BME280;64986;55.672;37.628;2023-04-02T04:58:59;98963.69;;;7.48;73.15
76205;BME280;64986;55.672;37.628;2023-04-02T05:01:31;98972.94;;;7.44;72.83
76205;BME280;64986;55.672;37.628;2023-04-02T05:06:48;98974.00;;;7.63;71.69
76205;BME280;64986;55.672;37.628;2023-04-02T05:09:21;98976.22;;;7.66;72.14
76205;BME280;64986;55.672;37.628;2023-04-02T05:15:05;98975.63;;;7.64;71.88
76205;BME280;64986;55.672;37.628;2023-04-02T05:20:28;98971.78;;;7.67;70.95
76205;BME280;64986;55.672;37.628;2023-04-02T05:23:47;98971.75;;;7.54;71.42
76205;BME280;64986;55.672;37.628;2023-04-02T05:31:44;98992.03;;;7.38;71.88
76205;BME280;64986;55.672;37.628;2023-04-02T05:34:24;98989.44;;;7.45;71.61
76205;BME280;64986;55.672;37.628;2023-04-02T05:36:52;98990.66;;;7.42;72.32
76205;BME280;64986;55.672;37.628;2023-04-02T05:39:24;98991.47;;;7.43;72.43
76205;BME280;64986;55.672;37.628;2023-04-02T05:42:05;98987.41;;;7.40;72.38
76205;BME280;64986;55.672;37.628;2023-04-02T05:44:35;98994.47;;;7.33;71.75
76205;BME280;64986;55.672;37.628;2023-04-02T05:47:11;98997.09;;;7.33;72.08
76205;BME280;64986;55.672;37.628;2023-04-02T05:52:05;99001.25;;;7.21;72.53
76205;BME280;64986;55.672;37.628;2023-04-02T05:54:51;99004.28;;;7.24;72.11
76205;BME280;64986;55.672;37.628;2023-04-02T05:57:24;99004.09;;;7.26;72.21
76205;BME280;64986;55.672;37.628;2023-04-02T05:59:55;99007.56;;;7.33;72.49
76205;BME280;64986;55.672;37.628;2023-04-02T06:02:38;99008.59;;;7.45;71.68
76205;BME280;64986;55.672;37.628;2023-04-02T06:05:13;99000.34;;;7.55;71.56
76205;BME280;64986;55.672;37.628;2023-04-02T06:07:48;99005.78;;;7.54;71.41
76205;BME280;64986;55.672;37.628;2023-04-02T06:10:19;99009.25;;;7.61;71.74
76205;BME280;64986;55.672;37.628;2023-04-02T06:12:58;99000.81;;;7.72;71.18
76205;BME280;64986;55.672;37.628;2023-04-02T06:15:29;98998.81;;;7.74;70.65
76205;BME280;64986;55.672;37.628;2023-04-02T06:18:00;98996.63;;;7.97;70.36
76205;BME280;64986;55.672;37.628;2023-04-02T06:20:26;98997.25;;;8.26;70.03
76205;BME280;64986;55.672;37.628;2023-04-02T06:22:58;98999.09;;;8.45;68.54
76205;BME280;64986;55.672;37.628;2023-04-02T06:25:38;99005.94;;;8.66;67.63
76205;BME280;64986;55.672;37.628;2023-04-02T06:28:11;99003.50;;;8.84;66.96
76205;BME280;64986;55.672;37.628;2023-04-02T06:30:40;99007.91;;;8.84;67.20
76205;BME280;64986;55.672;37.628;2023-04-02T06:33:10;99009.09;;;9.08;66.52
76205;BME280;64986;55.672;37.628;2023-04-02T06:35:40;99003.16;;;9.26;65.46
76205;BME280;64986;55.672;37.628;2023-04-02T06:38:18;99004.19;;;9.69;64.35
76205;BME280;64986;55.672;37.628;2023-04-02T06:43:33;99000.16;;;9.98;61.71
76205;BME280;64986;55.672;37.628;2023-04-02T06:46:06;98994.44;;;10.08;62.44
76205;BME280;64986;55.672;37.628;2023-04-02T06:48:35;99000.63;;;10.20;62.67
76205;BME280;64986;55.672;37.628;2023-04-02T06:51:10;98996.88;;;10.03;61.29
76205;BME280;64986;55.672;37.628;2023-04-02T06:53:47;99003.09;;;9.84;62.01
76205;BME280;64986;55.672;37.628;2023-04-02T06:56:23;99004.78;;;9.65;62.46
76205;BME280;64986;55.672;37.628;2023-04-02T06:58:51;99006.97;;;9.74;62.93
76205;BME280;64986;55.672;37.628;2023-04-02T07:01:20;99006.56;;;9.78;62.02
76205;BME280;64986;55.672;37.628;2023-04-02T07:03:47;99010.00;;;9.33;63.23
76205;BME280;64986;55.672;37.628;2023-04-02T07:06:17;99004.31;;;9.36;63.31
76205;BME280;64986;55.672;37.628;2023-04-02T07:08:43;99006.16;;;9.29;63.38
76205;BME280;64986;55.672;37.628;2023-04-02T07:11:16;99010.44;;;9.24;63.65
76205;BME280;64986;55.672;37.628;2023-04-02T07:13:43;99017.53;;;9.16;63.21
76205;BME280;64986;55.672;37.628;2023-04-02T07:16:16;99014.50;;;9.13;63.45
76205;BME280;64986;55.672;37.628;2023-04-02T07:18:43;99016.53;;;9.17;63.81
76205;BME280;64986;55.672;37.628;2023-04-02T07:21:09;99024.59;;;9.23;63.73
76205;BME280;64986;55.672;37.628;2023-04-02T07:23:35;99019.63;;;8.88;64.32
76205;BME280;64986;55.672;37.628;2023-04-02T07:26:02;99023.28;;;8.80;64.40
76205;BME280;64986;55.672;37.628;2023-04-02T07:28:28;99023.06;;;8.69;64.88
76205;BME280;64986;55.672;37.628;2023-04-02T07:30:54;99027.94;;;8.72;64.36
76205;BME280;64986;55.672;37.628;2023-04-02T07:33:23;99029.97;;;8.63;64.89
76205;BME280;64986;55.672;37.628;2023-04-02T07:35:51;99028.72;;;8.85;64.76
76205;BME280;64986;55.672;37.628;2023-04-02T07:38:16;99033.75;;;9.00;64.09
76205;BME280;64986;55.672;37.628;2023-04-02T07:40:42;99032.09;;;9.12;63.50
76205;BME280;64986;55.672;37.628;2023-04-02T07:43:08;99027.34;;;9.41;63.16
76205;BME280;64986;55.672;37.628;2023-04-02T07:45:34;99027.59;;;9.33;62.97
76205;BME280;64986;55.672;37.628;2023-04-02T07:48:04;99028.13;;;9.48;62.85
76205;BME280;64986;55.672;37.628;2023-04-02T07:50:30;99034.91;;;9.69;62.26
76205;BME280;64986;55.672;37.628;2023-04-02T07:52:56;99032.63;;;9.28;62.93
76205;BME280;64986;55.672;37.628;2023-04-02T07:55:21;99037.97;;;9.14;63.62
76205;BME280;64986;55.672;37.628;2023-04-02T07:57:54;99048.38;;;9.34;62.86
76205;BME280;64986;55.672;37.628;2023-04-02T08:00:21;99044.41;;;9.05;63.73
76205;BME280;64986;55.672;37.628;2023-04-02T08:02:47;99043.44;;;8.93;64.32
76205;BME280;64986;55.672;37.628;2023-04-02T08:05:12;99042.44;;;8.94;64.35
76205;BME280;64986;55.672;37.628;2023-04-02T08:07:39;99047.28;;;8.90;64.55
76205;BME280;64986;55.672;37.628;2023-04-02T08:10:08;99049.09;;;8.97;63.93
76205;BME280;64986;55.672;37.628;2023-04-02T08:12:34;99052.50;;;8.97;64.16
76205;BME280;64986;55.672;37.628;2023-04-02T08:15:00;99043.69;;;8.78;64.60
76205;BME280;64986;55.672;37.628;2023-04-02T08:17:26;99042.44;;;8.81;64.51
76205;BME280;64986;55.672;37.628;2023-04-02T08:19:56;99058.63;;;8.84;64.67
76205;BME280;64986;55.672;37.628;2023-04-02T08:22:26;99050.91;;;8.83;64.54
76205;BME280;64986;55.672;37.628;2023-04-02T08:24:52;99053.75;;;8.81;64.69
76205;BME280;64986;55.672;37.628;2023-04-02T08:27:17;99052.53;;;8.90;64.43
76205;BME280;64986;55.672;37.628;2023-04-02T08:29:43;99046.88;;;8.87;64.78
76205;BME280;64986;55.672;37.628;2023-04-02T08:32:11;99052.13;;;8.94;64.54
76205;BME280;64986;55.672;37.628;2023-04-02T08:34:40;99056.59;;;8.80;65.26
76205;BME280;64986;55.672;37.628;2023-04-02T08:37:06;99057.38;;;8.80;64.97
76205;BME280;64986;55.672;37.628;2023-04-02T08:39:33;99063.88;;;8.65;65.40
76205;BME280;64986;55.672;37.628;2023-04-02T08:42:11;99061.03;;;8.66;66.05
76205;BME280;64986;55.672;37.628;2023-04-02T08:47:34;99053.38;;;8.71;65.36
76205;BME280;64986;55.672;37.628;2023-04-02T08:52:36;99051.34;;;8.80;65.47
76205;BME280;64986;55.672;37.628;2023-04-02T08:55:04;99058.19;;;8.87;64.96
76205;BME280;64986;55.672;37.628;2023-04-02T08:57:41;99059.56;;;9.03;64.76
76205;BME280;64986;55.672;37.628;2023-04-02T09:02:48;99060.00;;;8.87;65.61
76205;BME280;64986;55.672;37.628;2023-04-02T09:05:21;99050.53;;;8.79;65.50
76205;BME280;64986;55.672;37.628;2023-04-02T09:07:48;99061.63;;;8.95;65.10
76205;BME280;64986;55.672;37.628;2023-04-02T09:10:15;99054.13;;;8.98;65.08
76205;BME280;64986;55.672;37.628;2023-04-02T09:12:45;99055.78;;;8.93;65.54
76205;BME280;64986;55.672;37.628;2023-04-02T09:17:38;99067.59;;;9.28;64.57
76205;BME280;64986;55.672;37.628;2023-04-02T09:20:24;99058.03;;;9.54;64.12
76205;BME280;64986;55.672;37.628;2023-04-02T09:22:51;99053.16;;;9.57;63.59
76205;BME280;64986;55.672;37.628;2023-04-02T09:25:26;99050.06;;;9.67;63.33
76205;BME280;64986;55.672;37.628;2023-04-02T09:27:55;99061.69;;;9.46;63.55
76205;BME280;64986;55.672;37.628;2023-04-02T09:33:00;99048.28;;;9.67;63.16
76205;BME280;64986;55.672;37.628;2023-04-02T09:35:30;99062.06;;;9.50;64.10
76205;BME280;64986;55.672;37.628;2023-04-02T09:38:10;99058.63;;;9.49;63.60
76205;BME280;64986;55.672;37.628;2023-04-02T09:41:05;99066.88;;;9.59;63.55
76205;BME280;64986;55.672;37.628;2023-04-02T09:43:32;99070.19;;;9.35;64.53
76205;BME280;64986;55.672;37.628;2023-04-02T09:46:05;99072.19;;;9.46;64.27
76205;BME280;64986;55.672;37.628;2023-04-02T09:48:44;99067.06;;;9.64;63.83
76205;BME280;64986;55.672;37.628;2023-04-02T09:51:16;99068.06;;;9.70;63.48
76205;BME280;64986;55.672;37.628;2023-04-02T09:53:48;99063.31;;;9.40;64.42
76205;BME280;64986;55.672;37.628;2023-04-02T09:58:40;99058.81;;;9.54;63.85
76205;BME280;64986;55.672;37.628;2023-04-02T10:01:25;99064.25;;;9.59;63.80
76205;BME280;64986;55.672;37.628;2023-04-02T10:03:52;99063.00;;;9.75;63.55
76205;BME280;64986;55.672;37.628;2023-04-02T10:06:18;99059.66;;;9.93;63.10
76205;BME280;64986;55.672;37.628;2023-04-02T10:08:44;99069.31;;;10.06;63.12
76205;BME280;64986;55.672;37.628;2023-04-02T10:11:31;99060.91;;;9.84;62.70
76205;BME280;64986;55.672;37.628;2023-04-02T10:14:01;99062.19;;;10.13;62.86
76205;BME280;64986;55.672;37.628;2023-04-02T10:16:33;99052.13;;;10.35;61.44
76205;BME280;64986;55.672;37.628;2023-04-02T10:19:26;99060.94;;;10.72;61.04
76205;BME280;64986;55.672;37.628;2023-04-02T10:21:54;99061.13;;;10.95;60.54
76205;BME280;64986;55.672;37.628;2023-04-02T10:24:21;99056.84;;;11.37;59.71
76205;BME280;64986;55.672;37.628;2023-04-02T10:32:53;99055.81;;;12.70;55.19
76205;BME280;64986;55.672;37.628;2023-04-02T10:40:54;99056.41;;;12.96;54.39
76205;BME280;64986;55.672;37.628;2023-04-02T10:51:58;99049.31;;;13.88;49.91
76205;BME280;64986;55.672;37.628;2023-04-02T10:57:22;99054.78;;;13.70;50.61
76205;BME280;64986;55.672;37.628;2023-04-02T11:00:13;99055.56;;;13.19;51.22
76205;BME280;64986;55.672;37.628;2023-04-02T11:03:28;99050.78;;;12.92;52.92
76205;BME280;64986;55.672;37.628;2023-04-02T11:05:43;99050.63;;;13.22;53.08
76205;BME280;64986;55.672;37.628;2023-04-02T11:16:11;99045.63;;;13.61;51.94
76205;BME280;64986;55.672;37.628;2023-04-02T11:18:40;99039.88;;;13.52;51.98
76205;BME280;64986;55.672;37.628;2023-04-02T11:24:01;99034.44;;;12.84;53.14
76205;BME280;64986;55.672;37.628;2023-04-02T11:26:33;99043.53;;;13.23;51.52
76205;BME280;64986;55.672;37.628;2023-04-02T11:31:39;99049.16;;;12.80;53.28
76205;BME280;64986;55.672;37.628;2023-04-02T11:34:11;99036.31;;;12.71;53.10
76205;BME280;64986;55.672;37.628;2023-04-02T11:39:44;99045.22;;;12.35;54.45
76205;BME280;64986;55.672;37.628;2023-04-02T11:44:42;99040.53;;;12.49;54.40
76205;BME280;64986;55.672;37.628;2023-04-02T11:47:23;99041.47;;;12.78;53.22
76205;BME280;64986;55.672;37.628;2023-04-02T11:52:37;99042.50;;;12.89;52.98
76205;BME280;64986;55.672;37.628;2023-04-02T11:55:21;99038.94;;;12.48;54.18
76205;BME280;64986;55.672;37.628;2023-04-02T12:08:31;99048.56;;;12.42;54.72
76205;BME280;64986;55.672;37.628;2023-04-02T12:11:01;99039.38;;;12.33;54.86
76205;BME280;64986;55.672;37.628;2023-04-02T12:13:53;99052.25;;;12.65;54.43
76205;BME280;64986;55.672;37.628;2023-04-02T12:16:22;99047.19;;;12.75;53.82
76205;BME280;64986;55.672;37.628;2023-04-02T12:18:50;99056.41;;;12.72;53.81
76205;BME280;64986;55.672;37.628;2023-04-02T12:21:24;99054.44;;;13.03;53.42
76205;BME280;64986;55.672;37.628;2023-04-02T12:23:52;99054.09;;;12.88;53.33
76205;BME280;64986;55.672;37.628;2023-04-02T12:26:31;99057.53;;;12.76;53.02
76205;BME280;64986;55.672;37.628;2023-04-02T12:29:27;99055.56;;;12.60;53.10
76205;BME280;64986;55.672;37.628;2023-04-02T12:31:55;99050.06;;;12.73;53.33
76205;BME280;64986;55.672;37.628;2023-04-02T12:34:23;99046.06;;;12.83;53.13
76205;BME280;64986;55.672;37.628;2023-04-02T12:37:01;99042.34;;;13.07;52.68
76205;BME280;64986;55.672;37.628;2023-04-02T12:39:29;99045.22;;;13.05;52.72
76205;BME280;64986;55.672;37.628;2023-04-02T12:41:55;99046.03;;;13.29;52.21
76205;BME280;64986;55.672;37.628;2023-04-02T12:44:24;99047.63;;;13.19;51.84
76205;BME280;64986;55.672;37.628;2023-04-02T12:46:50;99052.59;;;13.39;51.70
76205;BME280;64986;55.672;37.628;2023-04-02T12:51:45;99046.41;;;13.10;52.04
76205;BME280;64986;55.672;37.628;2023-04-02T12:54:14;99049.03;;;12.98;52.73
76205;BME280;64986;55.672;37.628;2023-04-02T12:56:41;99052.34;;;13.28;52.04
76205;BME280;64986;55.672;37.628;2023-04-02T12:59:28;99040.22;;;13.56;50.85
76205;BME280;64986;55.672;37.628;2023-04-02T13:01:58;99042.59;;;13.69;50.79
76205;BME280;64986;55.672;37.628;2023-04-02T13:04:25;99046.88;;;13.30;51.63
76205;BME280;64986;55.672;37.628;2023-04-02T13:06:51;99051.69;;;12.86;52.11
76205;BME280;64986;55.672;37.628;2023-04-02T13:09:33;99047.31;;;12.80;52.41
76205;BME280;64986;55.672;37.628;2023-04-02T13:12:01;99049.50;;;12.71;52.94
76205;BME280;64986;55.672;37.628;2023-04-02T13:14:27;99055.47;;;12.67;53.00
76205;BME280;64986;55.672;37.628;2023-04-02T13:16:54;99042.47;;;12.42;52.84
76205;BME280;64986;55.672;37.628;2023-04-02T13:19:30;99042.66;;;12.29;53.24
76205;BME280;64986;55.672;37.628;2023-04-02T13:21:59;99050.50;;;12.35;53.01
76205;BME280;64986;55.672;37.628;2023-04-02T13:24:28;99053.31;;;12.10;53.82
76205;BME280;64986;55.672;37.628;2023-04-02T13:26:57;99058.69;;;12.04;54.17
76205;BME280;64986;55.672;37.628;2023-04-02T13:29:30;99057.25;;;11.89;54.26
76205;BME280;64986;55.672;37.628;2023-04-02T13:32:01;99059.53;;;11.67;55.48
76205;BME280;64986;55.672;37.628;2023-04-02T13:34:27;99052.94;;;11.58;55.29
76205;BME280;64986;55.672;37.628;2023-04-02T13:36:53;99065.81;;;11.48;55.73
76205;BME280;64986;55.672;37.628;2023-04-02T13:39:19;99065.09;;;11.59;55.95
76205;BME280;64986;55.672;37.628;2023-04-02T13:41:50;99060.47;;;11.55;55.55
76205;BME280;64986;55.672;37.628;2023-04-02T13:44:20;99060.78;;;11.65;55.60
76205;BME280;64986;55.672;37.628;2023-04-02T13:46:46;99047.00;;;11.81;54.70
76205;BME280;64986;55.672;37.628;2023-04-02T13:49:11;99049.25;;;11.78;55.23
76205;BME280;64986;55.672;37.628;2023-04-02T13:51:40;99060.03;;;11.94;54.38
76205;BME280;64986;55.672;37.628;2023-04-02T13:54:14;99052.53;;;11.91;54.72
76205;BME280;64986;55.672;37.628;2023-04-02T13:56:41;99063.09;;;11.91;54.30
76205;BME280;64986;55.672;37.628;2023-04-02T13:59:06;99043.91;;;11.84;54.30
76205;BME280;64986;55.672;37.628;2023-04-02T14:01:32;99056.13;;;11.97;54.87
76205;BME280;64986;55.672;37.628;2023-04-02T14:03:58;99058.59;;;11.80;54.52
76205;BME280;64986;55.672;37.628;2023-04-02T14:12:33;99059.28;;;11.69;55.30
76205;BME280;64986;55.672;37.628;2023-04-02T14:18:31;99060.69;;;11.72;55.29
76205;BME280;64986;55.672;37.628;2023-04-02T14:29:40;99070.41;;;11.71;55.05
76205;BME280;64986;55.672;37.628;2023-04-02T14:32:16;99069.00;;;11.57;55.36
76205;BME280;64986;55.672;37.628;2023-04-02T14:35:08;99067.34;;;11.56;55.45
76205;BME280;64986;55.672;37.628;2023-04-02T14:38:07;99072.34;;;11.64;55.53
76205;BME280;64986;55.672;37.628;2023-04-02T14:40:55;99066.06;;;11.65;55.63
76205;BME280;64986;55.672;37.628;2023-04-02T14:43:27;99065.25;;;11.64;55.79
76205;BME280;64986;55.672;37.628;2023-04-02T14:46:02;99065.59;;;11.68;55.88
76205;BME280;64986;55.672;37.628;2023-04-02T14:56:22;99054.97;;;11.75;55.92
76205;BME280;64986;55.672;37.628;2023-04-02T14:58:53;99054.97;;;11.75;55.88
76205;BME280;64986;55.672;37.628;2023-04-02T15:01:27;99063.13;;;11.73;56.14
76205;BME280;64986;55.672;37.628;2023-04-02T15:04:07;99059.41;;;11.81;55.66
76205;BME280;64986;55.672;37.628;2023-04-02T15:06:43;99064.66;;;11.81;56.18
76205;BME280;64986;55.672;37.628;2023-04-02T15:09:34;99059.88;;;11.89;55.14
76205;BME280;64986;55.672;37.628;2023-04-02T15:12:13;99057.09;;;11.84;55.44
76205;BME280;64986;55.672;37.628;2023-04-02T15:14:44;99055.94;;;11.80;55.79
76205;BME280;64986;55.672;37.628;2023-04-02T15:17:11;99059.00;;;11.77;56.02
76205;BME280;64986;55.672;37.628;2023-04-02T15:19:37;99059.88;;;11.71;56.30
76205;BME280;64986;55.672;37.628;2023-04-02T15:30:41;99060.06;;;11.58;56.70
76205;BME280;64986;55.672;37.628;2023-04-02T15:33:32;99064.16;;;11.54;56.41
76205;BME280;64986;55.672;37.628;2023-04-02T15:38:52;99061.75;;;11.34;57.80
76205;BME280;64986;55.672;37.628;2023-04-02T15:41:26;99063.28;;;11.23;58.20
76205;BME280;64986;55.672;37.628;2023-04-02T15:49:46;99069.41;;;11.17;58.02
76205;BME280;64986;55.672;37.628;2023-04-02T16:00:20;99069.13;;;11.07;58.09
76205;BME280;64986;55.672;37.628;2023-04-02T16:11:01;99084.03;;;10.95;57.98
76205;BME280;64986;55.672;37.628;2023-04-02T16:13:34;99089.09;;;10.96;58.85
76205;BME280;64986;55.672;37.628;2023-04-02T16:16:17;99087.69;;;10.94;58.70
76205;BME280;64986;55.672;37.628;2023-04-02T16:18:50;99096.38;;;10.94;58.42
76205;BME280;64986;55.672;37.628;2023-04-02T16:21:23;99089.78;;;10.85;58.61
76205;BME280;64986;55.672;37.628;2023-04-02T16:23:49;99103.75;;;10.86;59.14
76205;BME280;64986;55.672;37.628;2023-04-02T16:36:53;99118.75;;;10.60;60.32
76205;BME280;64986;55.672;37.628;2023-04-02T16:39:45;99122.22;;;10.54;60.82
76205;BME280;64986;55.672;37.628;2023-04-02T16:49:56;99119.28;;;10.44;61.16
76205;BME280;64986;55.672;37.628;2023-04-02T16:52:45;99130.81;;;10.43;61.85
76205;BME280;64986;55.672;37.628;2023-04-02T17:00:52;99134.88;;;10.39;61.66
76205;BME280;64986;55.672;37.628;2023-04-02T17:08:42;99133.22;;;10.44;61.10
76205;BME280;64986;55.672;37.628;2023-04-02T17:11:14;99133.00;;;10.46;60.89